Terminal Aerodrome Forecast
Issued by NWS

Home | Current Version | Previous Version | Text Only | Print | Product List | Glossary On
Versions: 1 2 3 4 5 6 7 8 9 10 11 12 13 14 15 16 17 18 19 20 21 22 23 24 25 26 27 28 29 30 31 32 33 34 35 36 37 38 39 40
000
FTUS44 KHGX 030311 AAA
TAFCXO
TAF AMD
KCXO 030311Z 0303/0324 VRB03KT 1/2SM FG OVC002
     FM030600 00000KT 1/4SM FG OVC001
     FM031600 17007KT 4SM BR OVC004
     FM031800 18009KT P6SM SCT008 OVC011
     FM032100 17008KT P6SM OVC025=

USA.gov is the U.S. government's official web portal to all federal, state and local government web resources and services.